sensor_id;sensor_type;location;lat;lon;timestamp;P1;durP1;ratioP1;P2;durP2;ratioP2
25581;SDS011;13462;50.764;4.332;2022-08-25T00:01:13;8.30;;;6.22;;
25581;SDS011;13462;50.764;4.332;2022-08-25T00:03:47;7.95;;;5.97;;
25581;SDS011;13462;50.764;4.332;2022-08-25T00:06:13;8.18;;;7.18;;
25581;SDS011;13462;50.764;4.332;2022-08-25T00:08:40;8.07;;;7.38;;
25581;SDS011;13462;50.764;4.332;2022-08-25T00:11:10;9.23;;;7.95;;
25581;SDS011;13462;50.764;4.332;2022-08-25T00:13:41;8.63;;;7.72;;
25581;SDS011;13462;50.764;4.332;2022-08-25T00:16:10;7.90;;;6.93;;
25581;SDS011;13462;50.764;4.332;2022-08-25T00:18:40;9.23;;;7.07;;
25581;SDS011;13462;50.764;4.332;2022-08-25T00:21:09;10.13;;;7.18;;
25581;SDS011;13462;50.764;4.332;2022-08-25T00:23:36;8.27;;;7.38;;
25581;SDS011;13462;50.764;4.332;2022-08-25T00:26:02;7.47;;;6.80;;
25581;SDS011;13462;50.764;4.332;2022-08-25T00:28:28;9.63;;;7.43;;
25581;SDS011;13462;50.764;4.332;2022-08-25T00:30:55;9.15;;;8.23;;
25581;SDS011;13462;50.764;4.332;2022-08-25T00:33:23;10.20;;;8.23;;
25581;SDS011;13462;50.764;4.332;2022-08-25T00:35:50;9.07;;;8.23;;
25581;SDS011;13462;50.764;4.332;2022-08-25T00:38:16;9.90;;;8.50;;
25581;SDS011;13462;50.764;4.332;2022-08-25T00:40:43;10.07;;;7.45;;
25581;SDS011;13462;50.764;4.332;2022-08-25T00:43:09;8.52;;;7.88;;
25581;SDS011;13462;50.764;4.332;2022-08-25T00:45:35;10.88;;;8.57;;
25581;SDS011;13462;50.764;4.332;2022-08-25T00:48:01;9.55;;;7.32;;
25581;SDS011;13462;50.764;4.332;2022-08-25T00:50:28;10.90;;;8.57;;
25581;SDS011;13462;50.764;4.332;2022-08-25T00:52:56;11.20;;;9.70;;
25581;SDS011;13462;50.764;4.332;2022-08-25T00:55:29;9.65;;;8.75;;
25581;SDS011;13462;50.764;4.332;2022-08-25T00:58:04;10.52;;;8.75;;
25581;SDS011;13462;50.764;4.332;2022-08-25T01:00:40;9.93;;;8.98;;
25581;SDS011;13462;50.764;4.332;2022-08-25T01:03:08;9.70;;;8.82;;
25581;SDS011;13462;50.764;4.332;2022-08-25T01:05:35;7.95;;;7.15;;
25581;SDS011;13462;50.764;4.332;2022-08-25T01:08:02;9.05;;;7.40;;
25581;SDS011;13462;50.764;4.332;2022-08-25T01:10:30;8.88;;;7.97;;
25581;SDS011;13462;50.764;4.332;2022-08-25T01:13:00;9.52;;;8.25;;
25581;SDS011;13462;50.764;4.332;2022-08-25T01:15:31;9.63;;;8.73;;
25581;SDS011;13462;50.764;4.332;2022-08-25T01:17:58;11.10;;;8.50;;
25581;SDS011;13462;50.764;4.332;2022-08-25T01:20:25;9.13;;;8.07;;
25581;SDS011;13462;50.764;4.332;2022-08-25T01:22:53;9.52;;;8.20;;
25581;SDS011;13462;50.764;4.332;2022-08-25T01:28:03;11.95;;;9.23;;
25581;SDS011;13462;50.764;4.332;2022-08-25T01:30:29;10.57;;;8.82;;
25581;SDS011;13462;50.764;4.332;2022-08-25T01:32:55;11.70;;;9.80;;
25581;SDS011;13462;50.764;4.332;2022-08-25T01:35:21;9.95;;;9.15;;
25581;SDS011;13462;50.764;4.332;2022-08-25T01:37:48;11.68;;;8.00;;
25581;SDS011;13462;50.764;4.332;2022-08-25T01:40:13;11.65;;;9.55;;
25581;SDS011;13462;50.764;4.332;2022-08-25T01:45:37;11.55;;;10.43;;
25581;SDS011;13462;50.764;4.332;2022-08-25T01:48:05;11.65;;;10.10;;
25581;SDS011;13462;50.764;4.332;2022-08-25T01:50:32;10.98;;;9.80;;
25581;SDS011;13462;50.764;4.332;2022-08-25T01:55:34;11.90;;;10.70;;
25581;SDS011;13462;50.764;4.332;2022-08-25T01:58:18;12.98;;;10.90;;
25581;SDS011;13462;50.764;4.332;2022-08-25T02:00:47;12.93;;;10.77;;
25581;SDS011;13462;50.764;4.332;2022-08-25T02:03:14;12.45;;;10.82;;
25581;SDS011;13462;50.764;4.332;2022-08-25T02:05:42;13.20;;;10.32;;
25581;SDS011;13462;50.764;4.332;2022-08-25T02:08:08;12.70;;;11.43;;
25581;SDS011;13462;50.764;4.332;2022-08-25T02:10:35;11.68;;;10.55;;
25581;SDS011;13462;50.764;4.332;2022-08-25T02:13:02;14.77;;;11.63;;
25581;SDS011;13462;50.764;4.332;2022-08-25T02:15:29;13.98;;;11.90;;
25581;SDS011;13462;50.764;4.332;2022-08-25T02:17:55;14.35;;;11.52;;
25581;SDS011;13462;50.764;4.332;2022-08-25T02:20:22;12.30;;;10.95;;
25581;SDS011;13462;50.764;4.332;2022-08-25T02:22:49;13.63;;;12.15;;
25581;SDS011;13462;50.764;4.332;2022-08-25T02:25:15;13.10;;;11.45;;
25581;SDS011;13462;50.764;4.332;2022-08-25T02:27:42;11.77;;;10.73;;
25581;SDS011;13462;50.764;4.332;2022-08-25T02:30:08;13.05;;;11.13;;
25581;SDS011;13462;50.764;4.332;2022-08-25T02:32:35;13.55;;;11.05;;
25581;SDS011;13462;50.764;4.332;2022-08-25T02:35:01;13.40;;;11.07;;
25581;SDS011;13462;50.764;4.332;2022-08-25T02:37:26;14.73;;;11.15;;
25581;SDS011;13462;50.764;4.332;2022-08-25T02:39:52;13.02;;;10.63;;
25581;SDS011;13462;50.764;4.332;2022-08-25T02:42:18;15.32;;;10.65;;
25581;SDS011;13462;50.764;4.332;2022-08-25T02:44:45;12.65;;;10.73;;
25581;SDS011;13462;50.764;4.332;2022-08-25T02:47:12;12.13;;;10.13;;
25581;SDS011;13462;50.764;4.332;2022-08-25T02:49:37;10.50;;;9.52;;
25581;SDS011;13462;50.764;4.332;2022-08-25T02:52:03;10.43;;;9.30;;
25581;SDS011;13462;50.764;4.332;2022-08-25T02:54:29;10.35;;;9.38;;
25581;SDS011;13462;50.764;4.332;2022-08-25T02:56:55;9.32;;;8.23;;
25581;SDS011;13462;50.764;4.332;2022-08-25T02:59:20;11.85;;;8.15;;
25581;SDS011;13462;50.764;4.332;2022-08-25T03:01:46;10.45;;;7.43;;
25581;SDS011;13462;50.764;4.332;2022-08-25T03:04:12;9.35;;;7.32;;
25581;SDS011;13462;50.764;4.332;2022-08-25T03:06:38;12.65;;;7.30;;
25581;SDS011;13462;50.764;4.332;2022-08-25T03:09:04;8.80;;;7.90;;
25581;SDS011;13462;50.764;4.332;2022-08-25T03:11:31;10.38;;;7.93;;
25581;SDS011;13462;50.764;4.332;2022-08-25T03:13:56;13.15;;;8.52;;
25581;SDS011;13462;50.764;4.332;2022-08-25T03:16:22;8.15;;;7.35;;
25581;SDS011;13462;50.764;4.332;2022-08-25T03:18:48;10.98;;;7.70;;
25581;SDS011;13462;50.764;4.332;2022-08-25T03:21:14;10.20;;;7.70;;
25581;SDS011;13462;50.764;4.332;2022-08-25T03:23:41;11.55;;;8.43;;
25581;SDS011;13462;50.764;4.332;2022-08-25T03:26:08;9.38;;;7.88;;
25581;SDS011;13462;50.764;4.332;2022-08-25T03:28:52;9.68;;;7.68;;
25581;SDS011;13462;50.764;4.332;2022-08-25T03:31:19;11.40;;;8.18;;
25581;SDS011;13462;50.764;4.332;2022-08-25T03:33:51;11.90;;;7.70;;
25581;SDS011;13462;50.764;4.332;2022-08-25T03:36:18;10.25;;;6.88;;
25581;SDS011;13462;50.764;4.332;2022-08-25T03:38:44;8.93;;;8.00;;
25581;SDS011;13462;50.764;4.332;2022-08-25T03:41:43;11.35;;;7.78;;
25581;SDS011;13462;50.764;4.332;2022-08-25T03:44:02;12.20;;;8.13;;
25581;SDS011;13462;50.764;4.332;2022-08-25T03:46:30;10.55;;;7.30;;
25581;SDS011;13462;50.764;4.332;2022-08-25T03:49:06;9.15;;;7.10;;
25581;SDS011;13462;50.764;4.332;2022-08-25T03:51:39;11.70;;;7.20;;
25581;SDS011;13462;50.764;4.332;2022-08-25T03:54:07;12.70;;;7.43;;
25581;SDS011;13462;50.764;4.332;2022-08-25T03:56:35;8.43;;;6.80;;
25581;SDS011;13462;50.764;4.332;2022-08-25T03:59:01;7.50;;;6.72;;
25581;SDS011;13462;50.764;4.332;2022-08-25T04:01:27;9.10;;;7.53;;
25581;SDS011;13462;50.764;4.332;2022-08-25T04:03:53;8.80;;;7.18;;
25581;SDS011;13462;50.764;4.332;2022-08-25T04:06:19;13.20;;;7.22;;
25581;SDS011;13462;50.764;4.332;2022-08-25T04:08:45;9.45;;;7.28;;
25581;SDS011;13462;50.764;4.332;2022-08-25T04:11:13;10.48;;;7.10;;
25581;SDS011;13462;50.764;4.332;2022-08-25T04:13:41;6.45;;;5.85;;
25581;SDS011;13462;50.764;4.332;2022-08-25T04:16:18;10.60;;;6.22;;
25581;SDS011;13462;50.764;4.332;2022-08-25T04:18:46;7.35;;;6.13;;
25581;SDS011;13462;50.764;4.332;2022-08-25T04:21:13;8.98;;;6.13;;
25581;SDS011;13462;50.764;4.332;2022-08-25T04:23:41;7.00;;;6.30;;
25581;SDS011;13462;50.764;4.332;2022-08-25T04:26:09;10.02;;;6.22;;
25581;SDS011;13462;50.764;4.332;2022-08-25T04:28:37;5.93;;;5.43;;
25581;SDS011;13462;50.764;4.332;2022-08-25T04:31:06;10.55;;;5.95;;
25581;SDS011;13462;50.764;4.332;2022-08-25T04:33:33;9.80;;;6.90;;
25581;SDS011;13462;50.764;4.332;2022-08-25T04:35:59;11.35;;;7.15;;
25581;SDS011;13462;50.764;4.332;2022-08-25T04:38:25;10.40;;;6.57;;
25581;SDS011;13462;50.764;4.332;2022-08-25T04:40:54;13.07;;;8.43;;
25581;SDS011;13462;50.764;4.332;2022-08-25T04:43:21;13.27;;;8.00;;
25581;SDS011;13462;50.764;4.332;2022-08-25T04:45:47;10.68;;;7.35;;
25581;SDS011;13462;50.764;4.332;2022-08-25T04:48:12;16.70;;;9.38;;
25581;SDS011;13462;50.764;4.332;2022-08-25T04:50:38;14.80;;;8.35;;
25581;SDS011;13462;50.764;4.332;2022-08-25T04:53:04;12.05;;;7.53;;
25581;SDS011;13462;50.764;4.332;2022-08-25T04:55:30;11.70;;;7.43;;
25581;SDS011;13462;50.764;4.332;2022-08-25T04:57:55;12.10;;;7.68;;
25581;SDS011;13462;50.764;4.332;2022-08-25T05:00:21;11.77;;;7.10;;
25581;SDS011;13462;50.764;4.332;2022-08-25T05:02:47;12.00;;;6.43;;
25581;SDS011;13462;50.764;4.332;2022-08-25T05:05:13;14.55;;;6.80;;
25581;SDS011;13462;50.764;4.332;2022-08-25T05:07:39;10.98;;;6.50;;
25581;SDS011;13462;50.764;4.332;2022-08-25T05:10:04;8.93;;;6.70;;
25581;SDS011;13462;50.764;4.332;2022-08-25T05:12:30;10.70;;;6.00;;
25581;SDS011;13462;50.764;4.332;2022-08-25T05:14:57;6.97;;;5.80;;
25581;SDS011;13462;50.764;4.332;2022-08-25T05:17:42;8.73;;;6.10;;
25581;SDS011;13462;50.764;4.332;2022-08-25T05:20:08;9.48;;;6.03;;
25581;SDS011;13462;50.764;4.332;2022-08-25T05:22:34;8.48;;;5.75;;
25581;SDS011;13462;50.764;4.332;2022-08-25T05:25:00;8.35;;;5.72;;
25581;SDS011;13462;50.764;4.332;2022-08-25T05:27:25;7.15;;;5.15;;
25581;SDS011;13462;50.764;4.332;2022-08-25T05:29:51;10.75;;;5.82;;
25581;SDS011;13462;50.764;4.332;2022-08-25T05:32:16;7.18;;;5.03;;
25581;SDS011;13462;50.764;4.332;2022-08-25T05:34:42;11.05;;;5.70;;
25581;SDS011;13462;50.764;4.332;2022-08-25T05:37:08;6.65;;;4.90;;
25581;SDS011;13462;50.764;4.332;2022-08-25T05:39:33;6.85;;;5.18;;
25581;SDS011;13462;50.764;4.332;2022-08-25T05:41:59;9.35;;;5.70;;
25581;SDS011;13462;50.764;4.332;2022-08-25T05:44:24;9.15;;;5.20;;
25581;SDS011;13462;50.764;4.332;2022-08-25T05:46:51;7.53;;;4.68;;
25581;SDS011;13462;50.764;4.332;2022-08-25T05:49:16;8.43;;;5.28;;
25581;SDS011;13462;50.764;4.332;2022-08-25T05:51:42;7.45;;;5.18;;
25581;SDS011;13462;50.764;4.332;2022-08-25T05:54:08;6.50;;;4.93;;
25581;SDS011;13462;50.764;4.332;2022-08-25T05:56:34;10.13;;;4.90;;
25581;SDS011;13462;50.764;4.332;2022-08-25T05:59:00;6.90;;;5.05;;
25581;SDS011;13462;50.764;4.332;2022-08-25T06:01:26;6.55;;;5.18;;
25581;SDS011;13462;50.764;4.332;2022-08-25T06:04:13;12.45;;;5.22;;
25581;SDS011;13462;50.764;4.332;2022-08-25T06:06:40;9.20;;;4.93;;
25581;SDS011;13462;50.764;4.332;2022-08-25T06:09:05;9.40;;;5.75;;
25581;SDS011;13462;50.764;4.332;2022-08-25T06:11:33;6.70;;;4.03;;
25581;SDS011;13462;50.764;4.332;2022-08-25T06:14:00;5.43;;;4.90;;
25581;SDS011;13462;50.764;4.332;2022-08-25T06:16:25;6.82;;;4.93;;
25581;SDS011;13462;50.764;4.332;2022-08-25T06:18:51;6.82;;;5.20;;
25581;SDS011;13462;50.764;4.332;2022-08-25T06:21:16;8.98;;;4.82;;
25581;SDS011;13462;50.764;4.332;2022-08-25T06:23:42;6.05;;;5.00;;
25581;SDS011;13462;50.764;4.332;2022-08-25T06:26:11;9.55;;;5.18;;
25581;SDS011;13462;50.764;4.332;2022-08-25T06:28:37;10.73;;;4.90;;
25581;SDS011;13462;50.764;4.332;2022-08-25T06:31:03;8.55;;;4.80;;
25581;SDS011;13462;50.764;4.332;2022-08-25T06:33:29;6.22;;;4.40;;
25581;SDS011;13462;50.764;4.332;2022-08-25T06:35:55;5.68;;;5.03;;
25581;SDS011;13462;50.764;4.332;2022-08-25T06:38:21;6.38;;;4.80;;
25581;SDS011;13462;50.764;4.332;2022-08-25T06:40:47;6.95;;;4.65;;
25581;SDS011;13462;50.764;4.332;2022-08-25T06:43:15;7.53;;;4.43;;
25581;SDS011;13462;50.764;4.332;2022-08-25T06:45:40;12.73;;;4.97;;
25581;SDS011;13462;50.764;4.332;2022-08-25T06:48:08;6.22;;;4.07;;
25581;SDS011;13462;50.764;4.332;2022-08-25T06:50:34;6.75;;;4.78;;
25581;SDS011;13462;50.764;4.332;2022-08-25T06:53:03;6.47;;;4.50;;
25581;SDS011;13462;50.764;4.332;2022-08-25T06:55:30;6.97;;;4.82;;
25581;SDS011;13462;50.764;4.332;2022-08-25T06:57:55;12.38;;;5.88;;
25581;SDS011;13462;50.764;4.332;2022-08-25T07:00:21;9.00;;;4.28;;
25581;SDS011;13462;50.764;4.332;2022-08-25T07:02:47;7.20;;;4.57;;
25581;SDS011;13462;50.764;4.332;2022-08-25T07:05:13;5.97;;;4.72;;
25581;SDS011;13462;50.764;4.332;2022-08-25T07:07:38;6.15;;;4.45;;
25581;SDS011;13462;50.764;4.332;2022-08-25T07:10:04;5.85;;;4.82;;
25581;SDS011;13462;50.764;4.332;2022-08-25T07:12:30;15.00;;;5.28;;
25581;SDS011;13462;50.764;4.332;2022-08-25T07:14:56;11.40;;;5.03;;
25581;SDS011;13462;50.764;4.332;2022-08-25T07:17:22;8.40;;;5.00;;
25581;SDS011;13462;50.764;4.332;2022-08-25T07:19:48;8.93;;;4.97;;
25581;SDS011;13462;50.764;4.332;2022-08-25T07:22:14;8.50;;;5.03;;
25581;SDS011;13462;50.764;4.332;2022-08-25T07:24:40;9.52;;;4.95;;
25581;SDS011;13462;50.764;4.332;2022-08-25T07:27:06;10.07;;;5.07;;
25581;SDS011;13462;50.764;4.332;2022-08-25T07:29:31;9.88;;;4.72;;
25581;SDS011;13462;50.764;4.332;2022-08-25T07:32:00;81.00;;;12.93;;
25581;SDS011;13462;50.764;4.332;2022-08-25T07:34:27;10.65;;;4.82;;
25581;SDS011;13462;50.764;4.332;2022-08-25T07:37:28;12.82;;;4.90;;
25581;SDS011;13462;50.764;4.332;2022-08-25T07:39:53;25.52;;;6.63;;
25581;SDS011;13462;50.764;4.332;2022-08-25T07:42:19;7.63;;;4.03;;
25581;SDS011;13462;50.764;4.332;2022-08-25T07:44:44;9.48;;;4.13;;
25581;SDS011;13462;50.764;4.332;2022-08-25T07:47:11;5.28;;;4.07;;
25581;SDS011;13462;50.764;4.332;2022-08-25T07:49:39;7.20;;;4.22;;
25581;SDS011;13462;50.764;4.332;2022-08-25T07:52:05;10.25;;;4.10;;
25581;SDS011;13462;50.764;4.332;2022-08-25T07:54:30;15.65;;;4.32;;
25581;SDS011;13462;50.764;4.332;2022-08-25T07:56:56;17.15;;;4.70;;
25581;SDS011;13462;50.764;4.332;2022-08-25T07:59:22;8.77;;;4.30;;
25581;SDS011;13462;50.764;4.332;2022-08-25T08:01:48;10.32;;;3.80;;
25581;SDS011;13462;50.764;4.332;2022-08-25T08:04:14;7.20;;;3.53;;
25581;SDS011;13462;50.764;4.332;2022-08-25T08:06:39;7.97;;;3.70;;
25581;SDS011;13462;50.764;4.332;2022-08-25T08:09:05;6.50;;;4.30;;
25581;SDS011;13462;50.764;4.332;2022-08-25T08:11:31;5.43;;;3.67;;
25581;SDS011;13462;50.764;4.332;2022-08-25T08:14:01;5.07;;;3.38;;
25581;SDS011;13462;50.764;4.332;2022-08-25T08:16:28;5.95;;;3.67;;
25581;SDS011;13462;50.764;4.332;2022-08-25T08:18:54;8.98;;;3.45;;
25581;SDS011;13462;50.764;4.332;2022-08-25T08:21:25;8.68;;;3.47;;
25581;SDS011;13462;50.764;4.332;2022-08-25T08:23:53;5.18;;;3.50;;
25581;SDS011;13462;50.764;4.332;2022-08-25T08:26:19;8.40;;;3.20;;
25581;SDS011;13462;50.764;4.332;2022-08-25T08:28:44;10.57;;;3.90;;
25581;SDS011;13462;50.764;4.332;2022-08-25T08:31:10;7.68;;;3.80;;
25581;SDS011;13462;50.764;4.332;2022-08-25T08:33:36;4.25;;;3.25;;
25581;SDS011;13462;50.764;4.332;2022-08-25T08:36:06;5.47;;;3.38;;
25581;SDS011;13462;50.764;4.332;2022-08-25T08:38:34;4.97;;;2.65;;
25581;SDS011;13462;50.764;4.332;2022-08-25T08:44:18;9.50;;;3.20;;
25581;SDS011;13462;50.764;4.332;2022-08-25T08:50:03;7.05;;;3.42;;
25581;SDS011;13462;50.764;4.332;2022-08-25T08:57:49;5.20;;;2.80;;
25581;SDS011;13462;50.764;4.332;2022-08-25T09:00:17;5.00;;;2.80;;
25581;SDS011;13462;50.764;4.332;2022-08-25T09:02:56;6.90;;;2.60;;
25581;SDS011;13462;50.764;4.332;2022-08-25T09:05:35;7.85;;;2.72;;
25581;SDS011;13462;50.764;4.332;2022-08-25T09:08:09;3.10;;;2.80;;
25581;SDS011;13462;50.764;4.332;2022-08-25T09:13:32;7.72;;;2.78;;
25581;SDS011;13462;50.764;4.332;2022-08-25T09:30:09;14.07;;;3.13;;
25581;SDS011;13462;50.764;4.332;2022-08-25T09:32:41;4.80;;;2.83;;
25581;SDS011;13462;50.764;4.332;2022-08-25T09:35:13;4.95;;;2.85;;
25581;SDS011;13462;50.764;4.332;2022-08-25T09:37:59;4.22;;;2.90;;
25581;SDS011;13462;50.764;4.332;2022-08-25T09:40:28;8.77;;;3.00;;
25581;SDS011;13462;50.764;4.332;2022-08-25T09:42:57;4.63;;;2.72;;
25581;SDS011;13462;50.764;4.332;2022-08-25T09:45:41;4.60;;;3.00;;
25581;SDS011;13462;50.764;4.332;2022-08-25T09:50:50;5.18;;;2.75;;
25581;SDS011;13462;50.764;4.332;2022-08-25T09:53:20;13.57;;;3.83;;
25581;SDS011;13462;50.764;4.332;2022-08-25T09:55:51;3.72;;;2.55;;
25581;SDS011;13462;50.764;4.332;2022-08-25T09:58:24;4.15;;;2.45;;
25581;SDS011;13462;50.764;4.332;2022-08-25T10:03:59;4.25;;;2.85;;
25581;SDS011;13462;50.764;4.332;2022-08-25T10:06:34;2.60;;;2.35;;
25581;SDS011;13462;50.764;4.332;2022-08-25T10:09:07;7.55;;;2.50;;
25581;SDS011;13462;50.764;4.332;2022-08-25T10:11:37;5.43;;;2.20;;
25581;SDS011;13462;50.764;4.332;2022-08-25T10:14:19;3.35;;;2.72;;
25581;SDS011;13462;50.764;4.332;2022-08-25T10:16:45;7.57;;;3.00;;
25581;SDS011;13462;50.764;4.332;2022-08-25T10:22:04;3.95;;;2.97;;
25581;SDS011;13462;50.764;4.332;2022-08-25T10:24:55;4.82;;;2.80;;
25581;SDS011;13462;50.764;4.332;2022-08-25T10:27:46;7.97;;;3.05;;
25581;SDS011;13462;50.764;4.332;2022-08-25T10:46:55;3.15;;;2.72;;
25581;SDS011;13462;50.764;4.332;2022-08-25T10:49:40;3.95;;;2.50;;
25581;SDS011;13462;50.764;4.332;2022-08-25T10:52:23;3.88;;;3.05;;
25581;SDS011;13462;50.764;4.332;2022-08-25T10:55:19;3.83;;;2.70;;
25581;SDS011;13462;50.764;4.332;2022-08-25T11:03:58;7.22;;;3.30;;
25581;SDS011;13462;50.764;4.332;2022-08-25T11:06:40;4.60;;;2.70;;
25581;SDS011;13462;50.764;4.332;2022-08-25T11:09:12;4.20;;;2.75;;
25581;SDS011;13462;50.764;4.332;2022-08-25T11:11:46;5.18;;;2.75;;
25581;SDS011;13462;50.764;4.332;2022-08-25T11:14:20;4.38;;;3.00;;
25581;SDS011;13462;50.764;4.332;2022-08-25T11:17:23;3.85;;;3.30;;
25581;SDS011;13462;50.764;4.332;2022-08-25T11:19:54;11.73;;;3.25;;
25581;SDS011;13462;50.764;4.332;2022-08-25T11:23:07;5.80;;;3.10;;
25581;SDS011;13462;50.764;4.332;2022-08-25T11:25:27;3.47;;;2.70;;
25581;SDS011;13462;50.764;4.332;2022-08-25T11:30:45;4.32;;;2.70;;
25581;SDS011;13462;50.764;4.332;2022-08-25T11:33:12;4.10;;;2.60;;
25581;SDS011;13462;50.764;4.332;2022-08-25T11:35:51;9.90;;;3.60;;
25581;SDS011;13462;50.764;4.332;2022-08-25T11:41:36;5.38;;;3.35;;
25581;SDS011;13462;50.764;4.332;2022-08-25T11:49:35;2.95;;;2.67;;
25581;SDS011;13462;50.764;4.332;2022-08-25T11:57:51;4.68;;;2.58;;
25581;SDS011;13462;50.764;4.332;2022-08-25T12:00:39;5.95;;;2.83;;
25581;SDS011;13462;50.764;4.332;2022-08-25T12:21:46;3.20;;;3.00;;
25581;SDS011;13462;50.764;4.332;2022-08-25T12:24:13;3.25;;;2.65;;
25581;SDS011;13462;50.764;4.332;2022-08-25T12:26:48;3.58;;;2.95;;
25581;SDS011;13462;50.764;4.332;2022-08-25T12:37:11;4.25;;;2.75;;
25581;SDS011;13462;50.764;4.332;2022-08-25T12:39:44;5.88;;;3.05;;
25581;SDS011;13462;50.764;4.332;2022-08-25T12:42:27;4.35;;;3.10;;
25581;SDS011;13462;50.764;4.332;2022-08-25T12:47:33;5.68;;;3.08;;
25581;SDS011;13462;50.764;4.332;2022-08-25T12:53:09;7.63;;;3.15;;
25581;SDS011;13462;50.764;4.332;2022-08-25T12:55:39;3.63;;;2.85;;
25581;SDS011;13462;50.764;4.332;2022-08-25T12:58:09;3.58;;;3.05;;
25581;SDS011;13462;50.764;4.332;2022-08-25T13:03:37;3.25;;;2.95;;
25581;SDS011;13462;50.764;4.332;2022-08-25T13:12:15;3.80;;;2.85;;
25581;SDS011;13462;50.764;4.332;2022-08-25T13:14:42;3.45;;;3.15;;
25581;SDS011;13462;50.764;4.332;2022-08-25T13:17:09;17.85;;;4.68;;
25581;SDS011;13462;50.764;4.332;2022-08-25T13:19:35;4.53;;;3.50;;
25581;SDS011;13462;50.764;4.332;2022-08-25T13:22:03;8.13;;;3.80;;
25581;SDS011;13462;50.764;4.332;2022-08-25T13:24:39;6.57;;;3.10;;
25581;SDS011;13462;50.764;4.332;2022-08-25T13:27:08;3.63;;;2.55;;
25581;SDS011;13462;50.764;4.332;2022-08-25T13:29:49;3.65;;;2.83;;
25581;SDS011;13462;50.764;4.332;2022-08-25T13:32:23;3.65;;;2.70;;
25581;SDS011;13462;50.764;4.332;2022-08-25T13:35:06;5.88;;;2.90;;
25581;SDS011;13462;50.764;4.332;2022-08-25T13:37:35;10.65;;;3.67;;
25581;SDS011;13462;50.764;4.332;2022-08-25T13:42:34;18.33;;;4.32;;
25581;SDS011;13462;50.764;4.332;2022-08-25T13:45:05;6.93;;;3.03;;
25581;SDS011;13462;50.764;4.332;2022-08-25T13:47:33;6.88;;;2.97;;
25581;SDS011;13462;50.764;4.332;2022-08-25T13:52:52;12.32;;;3.13;;
25581;SDS011;13462;50.764;4.332;2022-08-25T13:58:02;5.15;;;3.22;;
25581;SDS011;13462;50.764;4.332;2022-08-25T14:00:35;3.58;;;3.05;;
25581;SDS011;13462;50.764;4.332;2022-08-25T14:03:16;3.00;;;2.70;;
25581;SDS011;13462;50.764;4.332;2022-08-25T14:08:42;6.30;;;3.35;;
25581;SDS011;13462;50.764;4.332;2022-08-25T14:13:36;3.15;;;2.50;;
25581;SDS011;13462;50.764;4.332;2022-08-25T14:16:13;7.20;;;3.97;;
25581;SDS011;13462;50.764;4.332;2022-08-25T14:18:52;7.05;;;5.45;;
25581;SDS011;13462;50.764;4.332;2022-08-25T14:21:27;15.80;;;6.25;;
25581;SDS011;13462;50.764;4.332;2022-08-25T14:23:55;11.75;;;6.30;;
25581;SDS011;13462;50.764;4.332;2022-08-25T14:26:21;7.82;;;5.93;;
25581;SDS011;13462;50.764;4.332;2022-08-25T14:28:47;16.48;;;6.22;;
25581;SDS011;13462;50.764;4.332;2022-08-25T14:31:23;10.98;;;5.88;;
25581;SDS011;13462;50.764;4.332;2022-08-25T14:33:55;11.80;;;5.88;;
25581;SDS011;13462;50.764;4.332;2022-08-25T14:36:30;11.10;;;6.10;;
25581;SDS011;13462;50.764;4.332;2022-08-25T14:38:57;9.18;;;5.30;;
25581;SDS011;13462;50.764;4.332;2022-08-25T14:41:34;7.93;;;5.43;;
25581;SDS011;13462;50.764;4.332;2022-08-25T14:44:01;7.30;;;5.10;;
25581;SDS011;13462;50.764;4.332;2022-08-25T14:46:30;7.88;;;5.10;;
25581;SDS011;13462;50.764;4.332;2022-08-25T14:49:00;9.25;;;6.07;;
25581;SDS011;13462;50.764;4.332;2022-08-25T14:51:28;11.63;;;5.90;;
25581;SDS011;13462;50.764;4.332;2022-08-25T14:53:57;8.90;;;5.80;;
25581;SDS011;13462;50.764;4.332;2022-08-25T14:56:29;11.13;;;6.03;;
25581;SDS011;13462;50.764;4.332;2022-08-25T14:58:56;9.75;;;5.85;;
25581;SDS011;13462;50.764;4.332;2022-08-25T15:01:22;13.38;;;5.78;;
25581;SDS011;13462;50.764;4.332;2022-08-25T15:03:50;9.38;;;6.20;;
25581;SDS011;13462;50.764;4.332;2022-08-25T15:06:19;14.95;;;6.45;;
25581;SDS011;13462;50.764;4.332;2022-08-25T15:08:45;8.70;;;6.53;;
25581;SDS011;13462;50.764;4.332;2022-08-25T15:11:33;11.10;;;6.47;;
25581;SDS011;13462;50.764;4.332;2022-08-25T15:14:00;14.65;;;6.80;;
25581;SDS011;13462;50.764;4.332;2022-08-25T15:16:30;13.40;;;6.28;;
25581;SDS011;13462;50.764;4.332;2022-08-25T15:19:00;8.73;;;5.82;;
25581;SDS011;13462;50.764;4.332;2022-08-25T15:21:33;11.00;;;6.07;;
25581;SDS011;13462;50.764;4.332;2022-08-25T15:24:00;10.18;;;6.22;;
25581;SDS011;13462;50.764;4.332;2022-08-25T15:29:17;11.85;;;8.35;;
25581;SDS011;13462;50.764;4.332;2022-08-25T15:31:43;9.93;;;7.60;;
25581;SDS011;13462;50.764;4.332;2022-08-25T15:34:10;14.52;;;9.30;;
25581;SDS011;13462;50.764;4.332;2022-08-25T15:36:36;18.67;;;11.82;;
25581;SDS011;13462;50.764;4.332;2022-08-25T15:39:06;13.63;;;9.98;;
25581;SDS011;13462;50.764;4.332;2022-08-25T15:41:32;11.52;;;8.98;;
25581;SDS011;13462;50.764;4.332;2022-08-25T15:44:00;12.98;;;9.23;;
25581;SDS011;13462;50.764;4.332;2022-08-25T15:46:26;13.30;;;8.65;;
25581;SDS011;13462;50.764;4.332;2022-08-25T15:48:54;18.33;;;10.27;;
25581;SDS011;13462;50.764;4.332;2022-08-25T15:51:22;16.95;;;11.45;;
25581;SDS011;13462;50.764;4.332;2022-08-25T15:53:47;13.15;;;10.32;;
25581;SDS011;13462;50.764;4.332;2022-08-25T15:56:13;18.05;;;11.40;;
25581;SDS011;13462;50.764;4.332;2022-08-25T15:58:42;16.40;;;11.25;;
25581;SDS011;13462;50.764;4.332;2022-08-25T16:01:12;21.08;;;11.70;;
25581;SDS011;13462;50.764;4.332;2022-08-25T16:03:39;15.32;;;10.18;;
25581;SDS011;13462;50.764;4.332;2022-08-25T16:06:05;13.40;;;10.05;;
25581;SDS011;13462;50.764;4.332;2022-08-25T16:08:34;17.25;;;10.93;;
25581;SDS011;13462;50.764;4.332;2022-08-25T16:11:00;10.80;;;9.35;;
25581;SDS011;13462;50.764;4.332;2022-08-25T16:13:39;14.27;;;9.98;;
25581;SDS011;13462;50.764;4.332;2022-08-25T16:16:05;11.65;;;10.18;;
25581;SDS011;13462;50.764;4.332;2022-08-25T16:18:30;15.05;;;9.23;;
25581;SDS011;13462;50.764;4.332;2022-08-25T16:20:56;18.27;;;10.73;;
25581;SDS011;13462;50.764;4.332;2022-08-25T16:23:22;13.18;;;10.32;;
25581;SDS011;13462;50.764;4.332;2022-08-25T16:25:48;16.85;;;10.07;;
25581;SDS011;13462;50.764;4.332;2022-08-25T16:28:14;14.82;;;11.80;;
25581;SDS011;13462;50.764;4.332;2022-08-25T16:30:48;14.93;;;12.35;;
25581;SDS011;13462;50.764;4.332;2022-08-25T16:33:14;16.63;;;10.82;;
25581;SDS011;13462;50.764;4.332;2022-08-25T16:35:47;19.52;;;12.13;;
25581;SDS011;13462;50.764;4.332;2022-08-25T16:38:13;14.38;;;11.50;;
25581;SDS011;13462;50.764;4.332;2022-08-25T16:40:40;14.25;;;11.85;;
25581;SDS011;13462;50.764;4.332;2022-08-25T16:43:07;15.00;;;11.05;;
25581;SDS011;13462;50.764;4.332;2022-08-25T16:45:33;12.32;;;10.90;;
25581;SDS011;13462;50.764;4.332;2022-08-25T16:48:00;14.57;;;10.55;;
25581;SDS011;13462;50.764;4.332;2022-08-25T16:50:26;11.98;;;9.55;;
25581;SDS011;13462;50.764;4.332;2022-08-25T16:52:54;13.55;;;10.18;;
25581;SDS011;13462;50.764;4.332;2022-08-25T16:55:38;16.70;;;11.38;;
25581;SDS011;13462;50.764;4.332;2022-08-25T16:58:04;17.15;;;10.10;;
25581;SDS011;13462;50.764;4.332;2022-08-25T17:00:30;12.95;;;10.60;;
25581;SDS011;13462;50.764;4.332;2022-08-25T17:02:59;18.05;;;10.23;;
25581;SDS011;13462;50.764;4.332;2022-08-25T17:05:31;15.02;;;9.10;;
25581;SDS011;13462;50.764;4.332;2022-08-25T17:08:03;15.82;;;9.02;;
25581;SDS011;13462;50.764;4.332;2022-08-25T17:10:47;14.98;;;11.18;;
25581;SDS011;13462;50.764;4.332;2022-08-25T17:13:13;18.40;;;12.10;;
25581;SDS011;13462;50.764;4.332;2022-08-25T17:15:43;22.52;;;12.77;;